sensor_id;sensor_type;location;lat;lon;timestamp;temperature;humidity
33955;DHT22;20233;50.804;7.126;2023-10-08T00:01:15;17.30;99.90
33955;DHT22;20233;50.804;7.126;2023-10-08T00:03:42;17.30;99.90
33955;DHT22;20233;50.804;7.126;2023-10-08T00:06:16;17.40;99.90
33955;DHT22;20233;50.804;7.126;2023-10-08T00:08:42;17.30;99.90
33955;DHT22;20233;50.804;7.126;2023-10-08T00:11:08;17.40;99.90
33955;DHT22;20233;50.804;7.126;2023-10-08T00:13:35;17.50;99.90
33955;DHT22;20233;50.804;7.126;2023-10-08T00:16:06;17.60;99.90
33955;DHT22;20233;50.804;7.126;2023-10-08T00:18:35;17.50;99.90
33955;DHT22;20233;50.804;7.126;2023-10-08T00:21:00;17.40;99.90
33955;DHT22;20233;50.804;7.126;2023-10-08T00:23:36;17.30;99.90
33955;DHT22;20233;50.804;7.126;2023-10-08T00:26:09;17.30;99.90
33955;DHT22;20233;50.804;7.126;2023-10-08T00:28:34;17.20;99.90
33955;DHT22;20233;50.804;7.126;2023-10-08T00:31:03;17.20;99.90
33955;DHT22;20233;50.804;7.126;2023-10-08T00:33:38;17.10;99.90
33955;DHT22;20233;50.804;7.126;2023-10-08T00:36:04;17.10;99.90
33955;DHT22;20233;50.804;7.126;2023-10-08T00:38:44;17.00;99.90
33955;DHT22;20233;50.804;7.126;2023-10-08T00:41:16;17.00;99.90
33955;DHT22;20233;50.804;7.126;2023-10-08T00:43:47;16.90;99.90
33955;DHT22;20233;50.804;7.126;2023-10-08T00:46:12;16.90;99.90
33955;DHT22;20233;50.804;7.126;2023-10-08T00:48:54;16.90;99.90
33955;DHT22;20233;50.804;7.126;2023-10-08T00:51:24;16.80;99.90
33955;DHT22;20233;50.804;7.126;2023-10-08T00:54:06;16.70;99.90
33955;DHT22;20233;50.804;7.126;2023-10-08T00:56:35;16.70;99.90
33955;DHT22;20233;50.804;7.126;2023-10-08T00:59:21;16.70;99.90
33955;DHT22;20233;50.804;7.126;2023-10-08T01:01:49;16.60;99.90
33955;DHT22;20233;50.804;7.126;2023-10-08T01:04:24;16.60;99.90
33955;DHT22;20233;50.804;7.126;2023-10-08T01:06:56;16.60;99.90
33955;DHT22;20233;50.804;7.126;2023-10-08T01:09:25;16.50;99.90
33955;DHT22;20233;50.804;7.126;2023-10-08T01:12:14;16.50;99.90
33955;DHT22;20233;50.804;7.126;2023-10-08T01:14:53;16.50;99.90
33955;DHT22;20233;50.804;7.126;2023-10-08T01:17:23;16.50;99.90
33955;DHT22;20233;50.804;7.126;2023-10-08T01:19:53;16.40;99.90
33955;DHT22;20233;50.804;7.126;2023-10-08T01:22:37;16.40;99.90
33955;DHT22;20233;50.804;7.126;2023-10-08T01:25:06;16.40;99.90
33955;DHT22;20233;50.804;7.126;2023-10-08T01:27:31;16.40;99.90
33955;DHT22;20233;50.804;7.126;2023-10-08T01:30:00;16.30;99.90
33955;DHT22;20233;50.804;7.126;2023-10-08T01:32:43;16.30;99.90
33955;DHT22;20233;50.804;7.126;2023-10-08T01:35:10;16.20;99.90
33955;DHT22;20233;50.804;7.126;2023-10-08T01:37:52;16.20;99.90
33955;DHT22;20233;50.804;7.126;2023-10-08T01:40:22;16.10;99.90
33955;DHT22;20233;50.804;7.126;2023-10-08T01:42:51;16.10;99.90
33955;DHT22;20233;50.804;7.126;2023-10-08T01:45:17;16.00;99.90
33955;DHT22;20233;50.804;7.126;2023-10-08T01:47:44;16.00;99.90
33955;DHT22;20233;50.804;7.126;2023-10-08T01:50:09;16.00;99.90
33955;DHT22;20233;50.804;7.126;2023-10-08T01:52:47;15.90;99.90
33955;DHT22;20233;50.804;7.126;2023-10-08T01:55:12;15.90;99.90
33955;DHT22;20233;50.804;7.126;2023-10-08T01:57:43;15.90;99.90
33955;DHT22;20233;50.804;7.126;2023-10-08T02:00:09;15.90;99.90
33955;DHT22;20233;50.804;7.126;2023-10-08T02:02:35;15.80;99.90
33955;DHT22;20233;50.804;7.126;2023-10-08T02:05:01;15.40;99.90
33955;DHT22;20233;50.804;7.126;2023-10-08T02:07:27;15.50;99.90
33955;DHT22;20233;50.804;7.126;2023-10-08T02:09:54;15.60;99.90
33955;DHT22;20233;50.804;7.126;2023-10-08T02:12:19;15.60;99.90
33955;DHT22;20233;50.804;7.126;2023-10-08T02:14:45;15.70;99.90
33955;DHT22;20233;50.804;7.126;2023-10-08T02:17:10;15.70;99.90
33955;DHT22;20233;50.804;7.126;2023-10-08T02:19:38;15.70;99.90
33955;DHT22;20233;50.804;7.126;2023-10-08T02:22:04;15.70;99.90
33955;DHT22;20233;50.804;7.126;2023-10-08T02:24:35;15.60;99.90
33955;DHT22;20233;50.804;7.126;2023-10-08T02:27:00;15.60;99.90
33955;DHT22;20233;50.804;7.126;2023-10-08T02:29:28;15.60;99.90
33955;DHT22;20233;50.804;7.126;2023-10-08T02:31:55;15.60;99.90
33955;DHT22;20233;50.804;7.126;2023-10-08T02:34:21;15.50;99.90
33955;DHT22;20233;50.804;7.126;2023-10-08T02:36:47;15.50;99.90
33955;DHT22;20233;50.804;7.126;2023-10-08T02:39:13;15.50;99.90
33955;DHT22;20233;50.804;7.126;2023-10-08T02:41:43;15.40;99.90
33955;DHT22;20233;50.804;7.126;2023-10-08T02:44:12;15.50;99.90
33955;DHT22;20233;50.804;7.126;2023-10-08T02:46:45;15.50;99.90
33955;DHT22;20233;50.804;7.126;2023-10-08T02:49:21;15.50;99.90
33955;DHT22;20233;50.804;7.126;2023-10-08T02:51:56;15.40;99.90
33955;DHT22;20233;50.804;7.126;2023-10-08T02:54:23;15.40;99.90
33955;DHT22;20233;50.804;7.126;2023-10-08T02:56:57;15.40;99.90
33955;DHT22;20233;50.804;7.126;2023-10-08T02:59:28;15.40;99.90
33955;DHT22;20233;50.804;7.126;2023-10-08T03:01:53;15.40;99.90
33955;DHT22;20233;50.804;7.126;2023-10-08T03:04:21;15.40;99.90
33955;DHT22;20233;50.804;7.126;2023-10-08T03:06:49;15.40;99.90
33955;DHT22;20233;50.804;7.126;2023-10-08T03:09:16;15.50;99.90
33955;DHT22;20233;50.804;7.126;2023-10-08T03:11:50;15.40;99.90
33955;DHT22;20233;50.804;7.126;2023-10-08T03:14:16;15.40;99.90
33955;DHT22;20233;50.804;7.126;2023-10-08T03:16:54;15.40;99.90
33955;DHT22;20233;50.804;7.126;2023-10-08T03:19:29;15.40;99.90
33955;DHT22;20233;50.804;7.126;2023-10-08T03:21:55;15.40;99.90
33955;DHT22;20233;50.804;7.126;2023-10-08T03:24:23;15.40;99.90
33955;DHT22;20233;50.804;7.126;2023-10-08T03:26:58;15.40;99.90
33955;DHT22;20233;50.804;7.126;2023-10-08T03:29:43;15.50;99.90
33955;DHT22;20233;50.804;7.126;2023-10-08T03:32:10;15.40;99.90
33955;DHT22;20233;50.804;7.126;2023-10-08T03:34:46;15.40;99.90
33955;DHT22;20233;50.804;7.126;2023-10-08T03:37:14;15.40;99.90
33955;DHT22;20233;50.804;7.126;2023-10-08T03:39:49;15.40;99.90
33955;DHT22;20233;50.804;7.126;2023-10-08T03:42:25;15.40;99.90
33955;DHT22;20233;50.804;7.126;2023-10-08T03:44:52;15.40;99.90
33955;DHT22;20233;50.804;7.126;2023-10-08T03:47:18;15.40;99.90
33955;DHT22;20233;50.804;7.126;2023-10-08T03:49:45;15.40;99.90
33955;DHT22;20233;50.804;7.126;2023-10-08T03:52:11;15.40;99.90
33955;DHT22;20233;50.804;7.126;2023-10-08T03:54:38;15.40;99.90
33955;DHT22;20233;50.804;7.126;2023-10-08T03:57:08;15.30;99.90
33955;DHT22;20233;50.804;7.126;2023-10-08T03:59:40;15.30;99.90
33955;DHT22;20233;50.804;7.126;2023-10-08T04:02:07;15.30;99.90
33955;DHT22;20233;50.804;7.126;2023-10-08T04:04:40;15.30;99.90
33955;DHT22;20233;50.804;7.126;2023-10-08T04:07:23;15.30;99.90
33955;DHT22;20233;50.804;7.126;2023-10-08T04:09:58;15.30;99.90
33955;DHT22;20233;50.804;7.126;2023-10-08T04:12:33;15.30;99.90
33955;DHT22;20233;50.804;7.126;2023-10-08T04:15:03;15.30;99.90
33955;DHT22;20233;50.804;7.126;2023-10-08T04:17:33;15.30;99.90
33955;DHT22;20233;50.804;7.126;2023-10-08T04:20:10;15.30;99.90
33955;DHT22;20233;50.804;7.126;2023-10-08T04:22:56;15.30;99.90
33955;DHT22;20233;50.804;7.126;2023-10-08T04:25:27;15.30;99.90
33955;DHT22;20233;50.804;7.126;2023-10-08T04:27:59;15.30;99.90
33955;DHT22;20233;50.804;7.126;2023-10-08T04:30:26;15.30;99.90
33955;DHT22;20233;50.804;7.126;2023-10-08T04:33:02;15.30;99.90
33955;DHT22;20233;50.804;7.126;2023-10-08T04:35:39;15.30;99.90
33955;DHT22;20233;50.804;7.126;2023-10-08T04:38:19;15.30;99.90
33955;DHT22;20233;50.804;7.126;2023-10-08T04:40:49;15.30;99.90
33955;DHT22;20233;50.804;7.126;2023-10-08T04:43:18;15.30;99.90
33955;DHT22;20233;50.804;7.126;2023-10-08T04:45:51;15.30;99.90
33955;DHT22;20233;50.804;7.126;2023-10-08T04:48:16;15.30;99.90
33955;DHT22;20233;50.804;7.126;2023-10-08T04:50:49;15.30;99.90
33955;DHT22;20233;50.804;7.126;2023-10-08T04:53:32;15.20;99.90
33955;DHT22;20233;50.804;7.126;2023-10-08T04:56:05;15.20;99.90
33955;DHT22;20233;50.804;7.126;2023-10-08T04:58:35;15.20;99.90
33955;DHT22;20233;50.804;7.126;2023-10-08T05:01:06;15.20;99.90
33955;DHT22;20233;50.804;7.126;2023-10-08T05:03:47;15.20;99.90
33955;DHT22;20233;50.804;7.126;2023-10-08T05:06:26;15.20;99.90
33955;DHT22;20233;50.804;7.126;2023-10-08T05:09:05;15.10;99.90
33955;DHT22;20233;50.804;7.126;2023-10-08T05:11:47;14.90;99.90
33955;DHT22;20233;50.804;7.126;2023-10-08T05:14:20;15.00;99.90
33955;DHT22;20233;50.804;7.126;2023-10-08T05:17:05;15.00;99.90
33955;DHT22;20233;50.804;7.126;2023-10-08T05:19:43;15.10;99.90
33955;DHT22;20233;50.804;7.126;2023-10-08T05:22:28;15.00;99.90
33955;DHT22;20233;50.804;7.126;2023-10-08T05:24:54;15.00;99.90
33955;DHT22;20233;50.804;7.126;2023-10-08T05:27:40;15.00;99.90
33955;DHT22;20233;50.804;7.126;2023-10-08T05:30:19;15.00;99.90
33955;DHT22;20233;50.804;7.126;2023-10-08T05:32:57;15.00;99.90
33955;DHT22;20233;50.804;7.126;2023-10-08T05:35:49;15.00;99.90
33955;DHT22;20233;50.804;7.126;2023-10-08T05:38:19;15.00;99.90
33955;DHT22;20233;50.804;7.126;2023-10-08T05:41:01;14.90;99.90
33955;DHT22;20233;50.804;7.126;2023-10-08T05:43:34;14.90;99.90
33955;DHT22;20233;50.804;7.126;2023-10-08T05:46:08;14.80;99.90
33955;DHT22;20233;50.804;7.126;2023-10-08T05:48:58;14.90;99.90
33955;DHT22;20233;50.804;7.126;2023-10-08T05:51:36;14.80;99.90
33955;DHT22;20233;50.804;7.126;2023-10-08T05:54:18;14.80;99.90
33955;DHT22;20233;50.804;7.126;2023-10-08T05:57:04;14.80;99.90
33955;DHT22;20233;50.804;7.126;2023-10-08T05:59:33;14.80;99.90
33955;DHT22;20233;50.804;7.126;2023-10-08T06:02:18;14.70;99.90
33955;DHT22;20233;50.804;7.126;2023-10-08T06:05:03;14.80;99.90
33955;DHT22;20233;50.804;7.126;2023-10-08T06:07:50;14.80;99.90
33955;DHT22;20233;50.804;7.126;2023-10-08T06:13:07;14.60;99.90
33955;DHT22;20233;50.804;7.126;2023-10-08T06:15:46;14.80;99.90
33955;DHT22;20233;50.804;7.126;2023-10-08T06:18:23;14.70;99.90
33955;DHT22;20233;50.804;7.126;2023-10-08T06:20:52;14.70;99.90
33955;DHT22;20233;50.804;7.126;2023-10-08T06:23:20;14.80;99.90
33955;DHT22;20233;50.804;7.126;2023-10-08T06:25:52;14.80;99.90
33955;DHT22;20233;50.804;7.126;2023-10-08T06:28:24;14.90;99.90
33955;DHT22;20233;50.804;7.126;2023-10-08T06:30:54;14.90;99.90
33955;DHT22;20233;50.804;7.126;2023-10-08T06:33:23;14.90;99.90
33955;DHT22;20233;50.804;7.126;2023-10-08T06:35:51;15.00;99.90
33955;DHT22;20233;50.804;7.126;2023-10-08T06:38:32;15.10;99.90
33955;DHT22;20233;50.804;7.126;2023-10-08T06:41:02;15.10;99.90
33955;DHT22;20233;50.804;7.126;2023-10-08T06:43:46;15.10;99.90
33955;DHT22;20233;50.804;7.126;2023-10-08T06:46:15;15.10;99.90
33955;DHT22;20233;50.804;7.126;2023-10-08T06:48:46;15.20;99.90
33955;DHT22;20233;50.804;7.126;2023-10-08T06:51:14;15.30;99.90
33955;DHT22;20233;50.804;7.126;2023-10-08T06:53:44;15.40;99.90
33955;DHT22;20233;50.804;7.126;2023-10-08T06:56:13;15.40;99.90
33955;DHT22;20233;50.804;7.126;2023-10-08T06:58:40;15.50;99.90
33955;DHT22;20233;50.804;7.126;2023-10-08T07:01:18;15.60;99.90
33955;DHT22;20233;50.804;7.126;2023-10-08T07:03:47;15.60;99.90
33955;DHT22;20233;50.804;7.126;2023-10-08T07:06:14;15.60;99.90
33955;DHT22;20233;50.804;7.126;2023-10-08T07:08:52;15.60;99.90
33955;DHT22;20233;50.804;7.126;2023-10-08T07:11:21;15.60;99.90
33955;DHT22;20233;50.804;7.126;2023-10-08T07:13:48;15.70;99.90
33955;DHT22;20233;50.804;7.126;2023-10-08T07:16:14;15.70;99.90
33955;DHT22;20233;50.804;7.126;2023-10-08T07:18:44;15.70;99.90
33955;DHT22;20233;50.804;7.126;2023-10-08T07:21:18;15.70;99.90
33955;DHT22;20233;50.804;7.126;2023-10-08T07:23:44;15.80;99.90
33955;DHT22;20233;50.804;7.126;2023-10-08T07:26:22;15.90;99.90
33955;DHT22;20233;50.804;7.126;2023-10-08T07:28:51;16.00;99.90
33955;DHT22;20233;50.804;7.126;2023-10-08T07:31:20;16.00;99.90
33955;DHT22;20233;50.804;7.126;2023-10-08T07:33:53;16.10;99.90
33955;DHT22;20233;50.804;7.126;2023-10-08T07:36:23;16.20;99.90
33955;DHT22;20233;50.804;7.126;2023-10-08T07:38:49;16.30;99.90
33955;DHT22;20233;50.804;7.126;2023-10-08T07:41:14;16.30;99.90
33955;DHT22;20233;50.804;7.126;2023-10-08T07:43:40;16.30;99.90
33955;DHT22;20233;50.804;7.126;2023-10-08T07:46:10;16.40;99.90
33955;DHT22;20233;50.804;7.126;2023-10-08T07:48:36;16.50;99.90
33955;DHT22;20233;50.804;7.126;2023-10-08T07:51:07;16.50;99.90
33955;DHT22;20233;50.804;7.126;2023-10-08T07:53:33;16.50;99.90
33955;DHT22;20233;50.804;7.126;2023-10-08T07:56:06;16.50;99.90
33955;DHT22;20233;50.804;7.126;2023-10-08T07:58:33;16.60;99.90
33955;DHT22;20233;50.804;7.126;2023-10-08T08:01:06;16.60;99.90
33955;DHT22;20233;50.804;7.126;2023-10-08T08:03:32;16.60;99.90
33955;DHT22;20233;50.804;7.126;2023-10-08T08:06:00;16.70;99.90
33955;DHT22;20233;50.804;7.126;2023-10-08T08:08:26;16.80;99.90
33955;DHT22;20233;50.804;7.126;2023-10-08T08:10:53;16.90;99.90
33955;DHT22;20233;50.804;7.126;2023-10-08T08:13:23;17.00;99.90
33955;DHT22;20233;50.804;7.126;2023-10-08T08:15:53;17.00;99.90
33955;DHT22;20233;50.804;7.126;2023-10-08T08:18:26;17.20;99.90
33955;DHT22;20233;50.804;7.126;2023-10-08T08:20:59;17.30;99.90
33955;DHT22;20233;50.804;7.126;2023-10-08T08:23:28;17.40;99.90
33955;DHT22;20233;50.804;7.126;2023-10-08T08:25:54;17.50;99.90
33955;DHT22;20233;50.804;7.126;2023-10-08T08:28:31;17.60;99.90
33955;DHT22;20233;50.804;7.126;2023-10-08T08:31:02;17.80;99.90
33955;DHT22;20233;50.804;7.126;2023-10-08T08:33:32;17.80;99.90
33955;DHT22;20233;50.804;7.126;2023-10-08T08:36:17;17.80;99.90
33955;DHT22;20233;50.804;7.126;2023-10-08T08:38:42;18.00;99.90
33955;DHT22;20233;50.804;7.126;2023-10-08T08:41:08;18.00;99.90
33955;DHT22;20233;50.804;7.126;2023-10-08T08:43:38;17.90;99.90
33955;DHT22;20233;50.804;7.126;2023-10-08T08:46:09;17.90;99.90
33955;DHT22;20233;50.804;7.126;2023-10-08T08:48:42;18.10;99.90
33955;DHT22;20233;50.804;7.126;2023-10-08T08:51:10;18.10;99.90
33955;DHT22;20233;50.804;7.126;2023-10-08T08:53:37;18.30;99.90
33955;DHT22;20233;50.804;7.126;2023-10-08T08:56:08;18.40;99.90
33955;DHT22;20233;50.804;7.126;2023-10-08T08:58:38;18.40;99.90
33955;DHT22;20233;50.804;7.126;2023-10-08T09:01:06;18.40;99.90
33955;DHT22;20233;50.804;7.126;2023-10-08T09:03:33;18.20;99.90
33955;DHT22;20233;50.804;7.126;2023-10-08T09:05:59;18.10;99.90
33955;DHT22;20233;50.804;7.126;2023-10-08T09:08:29;18.10;99.90
33955;DHT22;20233;50.804;7.126;2023-10-08T09:10:59;18.00;99.90
33955;DHT22;20233;50.804;7.126;2023-10-08T09:13:27;18.00;99.90
33955;DHT22;20233;50.804;7.126;2023-10-08T09:16:02;17.90;99.90
33955;DHT22;20233;50.804;7.126;2023-10-08T09:18:29;18.00;99.90
33955;DHT22;20233;50.804;7.126;2023-10-08T09:21:07;18.10;99.90
33955;DHT22;20233;50.804;7.126;2023-10-08T09:23:39;18.20;99.90
33955;DHT22;20233;50.804;7.126;2023-10-08T09:26:09;18.20;99.90
33955;DHT22;20233;50.804;7.126;2023-10-08T09:28:35;18.50;99.90
33955;DHT22;20233;50.804;7.126;2023-10-08T09:31:04;18.50;99.90
33955;DHT22;20233;50.804;7.126;2023-10-08T09:33:30;18.60;99.90
33955;DHT22;20233;50.804;7.126;2023-10-08T09:35:58;18.70;99.90
33955;DHT22;20233;50.804;7.126;2023-10-08T09:38:28;18.80;99.90
33955;DHT22;20233;50.804;7.126;2023-10-08T09:40:55;18.80;99.90
33955;DHT22;20233;50.804;7.126;2023-10-08T09:43:22;18.80;99.90
33955;DHT22;20233;50.804;7.126;2023-10-08T09:45:58;19.00;99.90
33955;DHT22;20233;50.804;7.126;2023-10-08T09:48:26;19.10;99.90
33955;DHT22;20233;50.804;7.126;2023-10-08T09:50:58;18.90;99.90
33955;DHT22;20233;50.804;7.126;2023-10-08T09:53:35;18.80;99.90
33955;DHT22;20233;50.804;7.126;2023-10-08T09:56:13;18.60;99.90
33955;DHT22;20233;50.804;7.126;2023-10-08T09:58:40;18.80;99.90
33955;DHT22;20233;50.804;7.126;2023-10-08T10:01:06;19.00;99.90
33955;DHT22;20233;50.804;7.126;2023-10-08T10:03:32;18.80;99.90
33955;DHT22;20233;50.804;7.126;2023-10-08T10:06:01;18.60;99.90
33955;DHT22;20233;50.804;7.126;2023-10-08T10:08:27;18.60;99.90
33955;DHT22;20233;50.804;7.126;2023-10-08T10:10:59;18.60;99.90
33955;DHT22;20233;50.804;7.126;2023-10-08T10:13:43;18.60;99.90
33955;DHT22;20233;50.804;7.126;2023-10-08T10:16:17;18.60;99.90
33955;DHT22;20233;50.804;7.126;2023-10-08T10:18:44;18.70;99.90
33955;DHT22;20233;50.804;7.126;2023-10-08T10:23:41;19.00;99.90
33955;DHT22;20233;50.804;7.126;2023-10-08T10:26:34;19.10;99.90
33955;DHT22;20233;50.804;7.126;2023-10-08T10:31:44;19.20;99.90
33955;DHT22;20233;50.804;7.126;2023-10-08T10:34:12;19.40;99.90
33955;DHT22;20233;50.804;7.126;2023-10-08T10:36:39;19.10;99.90
33955;DHT22;20233;50.804;7.126;2023-10-08T10:39:09;19.40;99.90
33955;DHT22;20233;50.804;7.126;2023-10-08T10:41:48;19.50;99.90
33955;DHT22;20233;50.804;7.126;2023-10-08T10:44:15;19.50;99.90
33955;DHT22;20233;50.804;7.126;2023-10-08T10:46:46;19.60;99.90
33955;DHT22;20233;50.804;7.126;2023-10-08T10:49:20;19.70;99.90
33955;DHT22;20233;50.804;7.126;2023-10-08T10:51:57;19.70;99.90
33955;DHT22;20233;50.804;7.126;2023-10-08T10:54:26;19.50;99.90
33955;DHT22;20233;50.804;7.126;2023-10-08T10:57:01;19.40;99.90
33955;DHT22;20233;50.804;7.126;2023-10-08T10:59:31;19.70;99.90
33955;DHT22;20233;50.804;7.126;2023-10-08T11:02:05;19.90;99.90
33955;DHT22;20233;50.804;7.126;2023-10-08T11:04:36;19.90;99.90
33955;DHT22;20233;50.804;7.126;2023-10-08T11:07:22;20.00;99.90
33955;DHT22;20233;50.804;7.126;2023-10-08T11:09:49;20.20;99.90
33955;DHT22;20233;50.804;7.126;2023-10-08T11:12:18;20.10;99.90
33955;DHT22;20233;50.804;7.126;2023-10-08T11:14:48;20.30;99.90
33955;DHT22;20233;50.804;7.126;2023-10-08T11:17:22;20.40;99.90
33955;DHT22;20233;50.804;7.126;2023-10-08T11:19:48;20.70;99.90
33955;DHT22;20233;50.804;7.126;2023-10-08T11:22:14;20.60;99.90
33955;DHT22;20233;50.804;7.126;2023-10-08T11:24:46;20.30;99.90
33955;DHT22;20233;50.804;7.126;2023-10-08T11:27:20;20.10;99.90
33955;DHT22;20233;50.804;7.126;2023-10-08T11:29:56;20.20;99.90
33955;DHT22;20233;50.804;7.126;2023-10-08T11:32:24;20.40;99.90
33955;DHT22;20233;50.804;7.126;2023-10-08T11:34:59;20.50;99.90
33955;DHT22;20233;50.804;7.126;2023-10-08T11:37:29;20.60;99.90
33955;DHT22;20233;50.804;7.126;2023-10-08T11:39:56;20.50;99.90
33955;DHT22;20233;50.804;7.126;2023-10-08T11:42:25;20.40;99.90
33955;DHT22;20233;50.804;7.126;2023-10-08T11:44:57;20.40;99.90
33955;DHT22;20233;50.804;7.126;2023-10-08T11:47:25;20.10;99.90
33955;DHT22;20233;50.804;7.126;2023-10-08T11:49:56;20.20;99.90
33955;DHT22;20233;50.804;7.126;2023-10-08T11:52:36;20.40;99.90
33955;DHT22;20233;50.804;7.126;2023-10-08T11:55:07;20.70;99.90
33955;DHT22;20233;50.804;7.126;2023-10-08T11:57:35;20.60;99.90
33955;DHT22;20233;50.804;7.126;2023-10-08T12:00:13;20.40;99.90
33955;DHT22;20233;50.804;7.126;2023-10-08T12:02:49;20.40;99.90
33955;DHT22;20233;50.804;7.126;2023-10-08T12:05:15;20.50;99.90
33955;DHT22;20233;50.804;7.126;2023-10-08T12:07:52;20.60;99.90
33955;DHT22;20233;50.804;7.126;2023-10-08T12:10:19;21.00;99.90
33955;DHT22;20233;50.804;7.126;2023-10-08T12:12:51;20.50;99.90
33955;DHT22;20233;50.804;7.126;2023-10-08T12:15:18;20.60;99.90
33955;DHT22;20233;50.804;7.126;2023-10-08T12:17:49;20.80;99.90
33955;DHT22;20233;50.804;7.126;2023-10-08T12:20:39;21.10;99.90
33955;DHT22;20233;50.804;7.126;2023-10-08T12:23:10;21.30;99.90
33955;DHT22;20233;50.804;7.126;2023-10-08T12:25:37;21.50;99.90
33955;DHT22;20233;50.804;7.126;2023-10-08T12:28:03;21.80;99.90
33955;DHT22;20233;50.804;7.126;2023-10-08T12:30:30;21.80;99.90
33955;DHT22;20233;50.804;7.126;2023-10-08T12:32:57;21.60;99.90
33955;DHT22;20233;50.804;7.126;2023-10-08T12:35:24;21.40;99.90
33955;DHT22;20233;50.804;7.126;2023-10-08T12:37:50;21.10;99.90
33955;DHT22;20233;50.804;7.126;2023-10-08T12:40:16;21.40;99.90
33955;DHT22;20233;50.804;7.126;2023-10-08T12:42:51;21.50;99.90
33955;DHT22;20233;50.804;7.126;2023-10-08T12:45:17;21.10;99.90
33955;DHT22;20233;50.804;7.126;2023-10-08T12:47:52;21.20;99.90
33955;DHT22;20233;50.804;7.126;2023-10-08T12:50:19;21.30;99.90
33955;DHT22;20233;50.804;7.126;2023-10-08T12:52:57;21.50;99.90
33955;DHT22;20233;50.804;7.126;2023-10-08T12:55:29;21.80;99.90
33955;DHT22;20233;50.804;7.126;2023-10-08T12:57:56;21.40;99.90
33955;DHT22;20233;50.804;7.126;2023-10-08T13:00:31;21.30;99.90
33955;DHT22;20233;50.804;7.126;2023-10-08T13:02:57;21.60;99.90
33955;DHT22;20233;50.804;7.126;2023-10-08T13:05:23;21.30;99.90
33955;DHT22;20233;50.804;7.126;2023-10-08T13:07:56;21.50;99.90
33955;DHT22;20233;50.804;7.126;2023-10-08T13:10:25;21.60;99.90
33955;DHT22;20233;50.804;7.126;2023-10-08T13:12:51;21.50;99.90
33955;DHT22;20233;50.804;7.126;2023-10-08T13:15:17;21.60;99.90
33955;DHT22;20233;50.804;7.126;2023-10-08T13:17:43;21.60;99.90
33955;DHT22;20233;50.804;7.126;2023-10-08T13:20:15;21.60;99.90
33955;DHT22;20233;50.804;7.126;2023-10-08T13:22:43;21.60;99.90
33955;DHT22;20233;50.804;7.126;2023-10-08T13:25:09;21.70;99.90
33955;DHT22;20233;50.804;7.126;2023-10-08T13:27:35;21.20;99.90
33955;DHT22;20233;50.804;7.126;2023-10-08T13:30:06;21.50;99.90
33955;DHT22;20233;50.804;7.126;2023-10-08T13:32:33;21.70;99.90
33955;DHT22;20233;50.804;7.126;2023-10-08T13:35:01;21.80;99.90
33955;DHT22;20233;50.804;7.126;2023-10-08T13:37:26;22.00;99.90
33955;DHT22;20233;50.804;7.126;2023-10-08T13:42:18;22.00;99.90
33955;DHT22;20233;50.804;7.126;2023-10-08T13:44:46;21.80;99.90
33955;DHT22;20233;50.804;7.126;2023-10-08T13:47:11;21.60;99.90
33955;DHT22;20233;50.804;7.126;2023-10-08T13:49:40;21.60;99.90
33955;DHT22;20233;50.804;7.126;2023-10-08T13:52:08;21.40;99.90
33955;DHT22;20233;50.804;7.126;2023-10-08T13:54:34;21.60;99.90
33955;DHT22;20233;50.804;7.126;2023-10-08T13:57:04;21.60;99.90
33955;DHT22;20233;50.804;7.126;2023-10-08T13:59:34;21.70;99.90
33955;DHT22;20233;50.804;7.126;2023-10-08T14:02:00;21.50;99.90
33955;DHT22;20233;50.804;7.126;2023-10-08T14:04:27;21.40;99.90
33955;DHT22;20233;50.804;7.126;2023-10-08T14:06:56;21.40;99.90
33955;DHT22;20233;50.804;7.126;2023-10-08T14:09:24;21.50;99.90
33955;DHT22;20233;50.804;7.126;2023-10-08T14:12:02;21.70;99.90
33955;DHT22;20233;50.804;7.126;2023-10-08T14:14:29;21.70;99.90
33955;DHT22;20233;50.804;7.126;2023-10-08T14:16:59;21.80;99.90
33955;DHT22;20233;50.804;7.126;2023-10-08T14:19:37;21.70;99.90
33955;DHT22;20233;50.804;7.126;2023-10-08T14:22:12;21.80;99.90
33955;DHT22;20233;50.804;7.126;2023-10-08T14:24:39;21.90;99.90
33955;DHT22;20233;50.804;7.126;2023-10-08T14:27:05;21.90;99.90
33955;DHT22;20233;50.804;7.126;2023-10-08T14:29:40;21.70;99.90
33955;DHT22;20233;50.804;7.126;2023-10-08T14:32:09;21.80;99.90
33955;DHT22;20233;50.804;7.126;2023-10-08T14:34:36;21.80;99.90
33955;DHT22;20233;50.804;7.126;2023-10-08T14:37:36;21.90;99.90
33955;DHT22;20233;50.804;7.126;2023-10-08T14:40:21;21.90;99.90
33955;DHT22;20233;50.804;7.126;2023-10-08T14:43:05;21.90;99.90
33955;DHT22;20233;50.804;7.126;2023-10-08T14:45:34;21.80;99.90
33955;DHT22;20233;50.804;7.126;2023-10-08T14:48:02;21.80;99.90
33955;DHT22;20233;50.804;7.126;2023-10-08T14:50:30;21.80;99.90
33955;DHT22;20233;50.804;7.126;2023-10-08T14:52:58;21.80;99.90
33955;DHT22;20233;50.804;7.126;2023-10-08T14:55:29;21.80;99.90
33955;DHT22;20233;50.804;7.126;2023-10-08T14:57:56;21.80;99.90
33955;DHT22;20233;50.804;7.126;2023-10-08T15:00:22;21.80;99.90
33955;DHT22;20233;50.804;7.126;2023-10-08T15:02:54;21.80;99.90
33955;DHT22;20233;50.804;7.126;2023-10-08T15:05:22;21.70;99.90
33955;DHT22;20233;50.804;7.126;2023-10-08T15:07:49;21.70;99.90
33955;DHT22;20233;50.804;7.126;2023-10-08T15:10:15;21.70;99.90
33955;DHT22;20233;50.804;7.126;2023-10-08T15:12:41;21.60;99.90
33955;DHT22;20233;50.804;7.126;2023-10-08T15:15:07;21.60;99.90
33955;DHT22;20233;50.804;7.126;2023-10-08T15:17:47;21.50;99.90
33955;DHT22;20233;50.804;7.126;2023-10-08T15:20:15;21.40;99.90
33955;DHT22;20233;50.804;7.126;2023-10-08T15:22:47;21.30;99.90
33955;DHT22;20233;50.804;7.126;2023-10-08T15:25:14;21.30;99.90
33955;DHT22;20233;50.804;7.126;2023-10-08T15:27:41;21.30;99.90
33955;DHT22;20233;50.804;7.126;2023-10-08T15:30:11;21.20;99.90
33955;DHT22;20233;50.804;7.126;2023-10-08T15:32:40;21.30;99.90
33955;DHT22;20233;50.804;7.126;2023-10-08T15:35:10;21.20;99.90
33955;DHT22;20233;50.804;7.126;2023-10-08T15:37:37;21.20;99.90
33955;DHT22;20233;50.804;7.126;2023-10-08T15:40:06;21.10;99.90
33955;DHT22;20233;50.804;7.126;2023-10-08T15:42:36;21.10;99.90
33955;DHT22;20233;50.804;7.126;2023-10-08T15:45:03;21.10;99.90
33955;DHT22;20233;50.804;7.126;2023-10-08T15:47:29;21.20;99.90
33955;DHT22;20233;50.804;7.126;2023-10-08T15:49:56;21.20;99.90
33955;DHT22;20233;50.804;7.126;2023-10-08T15:52:24;21.10;99.90
33955;DHT22;20233;50.804;7.126;2023-10-08T15:54:54;21.10;99.90
33955;DHT22;20233;50.804;7.126;2023-10-08T15:57:19;21.20;99.90
33955;DHT22;20233;50.804;7.126;2023-10-08T15:59:45;21.10;99.90
33955;DHT22;20233;50.804;7.126;2023-10-08T16:02:10;21.20;99.90
33955;DHT22;20233;50.804;7.126;2023-10-08T16:04:37;21.10;99.90